sensor_id;sensor_type;location;lat;lon;timestamp;P1;durP1;ratioP1;P2;durP2;ratioP2
32746;SDS011;19118;50.860;13.662;2022-11-03T00:00:59;10.40;;;2.15;;
32746;SDS011;19118;50.860;13.662;2022-11-03T00:05:59;9.98;;;2.20;;
32746;SDS011;19118;50.860;13.662;2022-11-03T00:11:06;8.15;;;2.03;;
32746;SDS011;19118;50.860;13.662;2022-11-03T00:16:11;8.02;;;2.10;;
32746;SDS011;19118;50.860;13.662;2022-11-03T00:21:12;10.85;;;2.10;;
32746;SDS011;19118;50.860;13.662;2022-11-03T00:26:16;14.15;;;2.55;;
32746;SDS011;19118;50.860;13.662;2022-11-03T00:31:20;16.00;;;2.40;;
32746;SDS011;19118;50.860;13.662;2022-11-03T00:36:26;14.68;;;2.47;;
32746;SDS011;19118;50.860;13.662;2022-11-03T00:41:31;14.00;;;2.25;;
32746;SDS011;19118;50.860;13.662;2022-11-03T00:46:32;9.50;;;1.98;;
32746;SDS011;19118;50.860;13.662;2022-11-03T00:51:35;23.02;;;2.20;;
32746;SDS011;19118;50.860;13.662;2022-11-03T00:56:39;11.88;;;2.58;;
32746;SDS011;19118;50.860;13.662;2022-11-03T01:01:41;14.60;;;2.55;;
32746;SDS011;19118;50.860;13.662;2022-11-03T01:06:47;17.90;;;2.50;;
32746;SDS011;19118;50.860;13.662;2022-11-03T01:16:55;18.52;;;3.10;;
32746;SDS011;19118;50.860;13.662;2022-11-03T01:21:55;16.95;;;2.47;;
32746;SDS011;19118;50.860;13.662;2022-11-03T01:26:56;6.47;;;2.10;;
32746;SDS011;19118;50.860;13.662;2022-11-03T01:31:57;10.55;;;2.50;;
32746;SDS011;19118;50.860;13.662;2022-11-03T01:36:57;14.85;;;2.50;;
32746;SDS011;19118;50.860;13.662;2022-11-03T01:41:58;17.38;;;3.50;;
32746;SDS011;19118;50.860;13.662;2022-11-03T01:47:15;18.38;;;2.78;;
32746;SDS011;19118;50.860;13.662;2022-11-03T01:52:27;15.48;;;2.45;;
32746;SDS011;19118;50.860;13.662;2022-11-03T01:57:33;10.75;;;1.88;;
32746;SDS011;19118;50.860;13.662;2022-11-03T02:02:39;18.30;;;2.15;;
32746;SDS011;19118;50.860;13.662;2022-11-03T02:07:43;14.70;;;1.80;;
32746;SDS011;19118;50.860;13.662;2022-11-03T02:12:50;18.88;;;2.60;;
32746;SDS011;19118;50.860;13.662;2022-11-03T02:17:51;11.20;;;2.85;;
32746;SDS011;19118;50.860;13.662;2022-11-03T02:28:28;10.77;;;2.88;;
32746;SDS011;19118;50.860;13.662;2022-11-03T02:33:34;18.27;;;3.88;;
32746;SDS011;19118;50.860;13.662;2022-11-03T02:38:46;15.30;;;2.67;;
32746;SDS011;19118;50.860;13.662;2022-11-03T02:43:54;8.23;;;2.10;;
32746;SDS011;19118;50.860;13.662;2022-11-03T02:48:56;15.98;;;2.55;;
32746;SDS011;19118;50.860;13.662;2022-11-03T02:54:02;16.42;;;3.70;;
32746;SDS011;19118;50.860;13.662;2022-11-03T02:59:23;13.88;;;3.08;;
32746;SDS011;19118;50.860;13.662;2022-11-03T03:09:39;7.05;;;2.05;;
32746;SDS011;19118;50.860;13.662;2022-11-03T03:14:44;14.95;;;3.13;;
32746;SDS011;19118;50.860;13.662;2022-11-03T03:30:26;11.52;;;2.28;;
32746;SDS011;19118;50.860;13.662;2022-11-03T03:35:29;10.30;;;2.50;;
32746;SDS011;19118;50.860;13.662;2022-11-03T03:40:33;10.38;;;2.65;;
32746;SDS011;19118;50.860;13.662;2022-11-03T03:45:35;14.88;;;4.57;;
32746;SDS011;19118;50.860;13.662;2022-11-03T03:50:37;18.25;;;3.95;;
32746;SDS011;19118;50.860;13.662;2022-11-03T03:55:41;16.60;;;3.25;;
32746;SDS011;19118;50.860;13.662;2022-11-03T04:00:44;17.25;;;3.15;;
32746;SDS011;19118;50.860;13.662;2022-11-03T04:05:44;10.10;;;2.90;;
32746;SDS011;19118;50.860;13.662;2022-11-03T04:10:45;9.75;;;3.30;;
32746;SDS011;19118;50.860;13.662;2022-11-03T04:16:06;10.13;;;3.30;;
32746;SDS011;19118;50.860;13.662;2022-11-03T04:21:27;16.63;;;2.70;;
32746;SDS011;19118;50.860;13.662;2022-11-03T04:26:45;30.98;;;9.35;;
32746;SDS011;19118;50.860;13.662;2022-11-03T04:31:46;34.38;;;8.98;;
32746;SDS011;19118;50.860;13.662;2022-11-03T04:36:46;23.85;;;7.65;;
32746;SDS011;19118;50.860;13.662;2022-11-03T04:41:47;9.80;;;3.88;;
32746;SDS011;19118;50.860;13.662;2022-11-03T04:46:47;20.42;;;4.63;;
32746;SDS011;19118;50.860;13.662;2022-11-03T04:51:47;22.52;;;5.30;;
32746;SDS011;19118;50.860;13.662;2022-11-03T04:56:48;12.05;;;3.17;;
32746;SDS011;19118;50.860;13.662;2022-11-03T05:01:49;11.52;;;3.10;;
32746;SDS011;19118;50.860;13.662;2022-11-03T05:06:50;14.63;;;3.42;;
32746;SDS011;19118;50.860;13.662;2022-11-03T05:11:52;13.90;;;4.20;;
32746;SDS011;19118;50.860;13.662;2022-11-03T05:16:53;16.83;;;2.90;;
32746;SDS011;19118;50.860;13.662;2022-11-03T05:21:55;22.90;;;3.38;;
32746;SDS011;19118;50.860;13.662;2022-11-03T05:26:58;8.27;;;2.60;;
32746;SDS011;19118;50.860;13.662;2022-11-03T05:31:59;13.70;;;4.30;;
32746;SDS011;19118;50.860;13.662;2022-11-03T05:42:19;19.40;;;3.42;;
32746;SDS011;19118;50.860;13.662;2022-11-03T05:52:54;20.90;;;3.33;;
32746;SDS011;19118;50.860;13.662;2022-11-03T05:57:59;33.08;;;5.00;;
32746;SDS011;19118;50.860;13.662;2022-11-03T06:03:04;21.08;;;4.07;;
32746;SDS011;19118;50.860;13.662;2022-11-03T06:08:11;19.65;;;3.80;;
32746;SDS011;19118;50.860;13.662;2022-11-03T06:13:26;18.92;;;2.75;;
32746;SDS011;19118;50.860;13.662;2022-11-03T06:18:36;18.17;;;3.90;;
32746;SDS011;19118;50.860;13.662;2022-11-03T06:23:37;45.53;;;12.90;;
32746;SDS011;19118;50.860;13.662;2022-11-03T06:28:39;38.30;;;9.10;;
32746;SDS011;19118;50.860;13.662;2022-11-03T06:33:40;25.30;;;6.88;;
32746;SDS011;19118;50.860;13.662;2022-11-03T06:38:40;14.07;;;4.28;;
32746;SDS011;19118;50.860;13.662;2022-11-03T06:43:41;21.05;;;4.70;;
32746;SDS011;19118;50.860;13.662;2022-11-03T06:48:41;24.65;;;4.18;;
32746;SDS011;19118;50.860;13.662;2022-11-03T06:53:43;15.63;;;3.22;;
32746;SDS011;19118;50.860;13.662;2022-11-03T06:58:44;25.65;;;3.10;;
32746;SDS011;19118;50.860;13.662;2022-11-03T07:03:48;13.23;;;2.38;;
32746;SDS011;19118;50.860;13.662;2022-11-03T07:08:55;17.25;;;3.13;;
32746;SDS011;19118;50.860;13.662;2022-11-03T07:14:09;8.13;;;3.00;;
32746;SDS011;19118;50.860;13.662;2022-11-03T07:19:24;10.95;;;2.53;;
32746;SDS011;19118;50.860;13.662;2022-11-03T07:24:39;14.73;;;2.05;;
32746;SDS011;19118;50.860;13.662;2022-11-03T07:29:41;5.85;;;1.30;;
32746;SDS011;19118;50.860;13.662;2022-11-03T07:34:42;11.80;;;1.80;;
32746;SDS011;19118;50.860;13.662;2022-11-03T07:39:44;10.70;;;1.83;;
32746;SDS011;19118;50.860;13.662;2022-11-03T07:44:45;9.68;;;1.33;;
32746;SDS011;19118;50.860;13.662;2022-11-03T07:49:45;11.50;;;1.58;;
32746;SDS011;19118;50.860;13.662;2022-11-03T07:54:46;7.70;;;1.73;;
32746;SDS011;19118;50.860;13.662;2022-11-03T07:59:48;4.97;;;1.48;;
32746;SDS011;19118;50.860;13.662;2022-11-03T08:04:51;7.75;;;1.45;;
32746;SDS011;19118;50.860;13.662;2022-11-03T08:09:51;12.60;;;2.05;;
32746;SDS011;19118;50.860;13.662;2022-11-03T08:14:51;12.75;;;3.42;;
32746;SDS011;19118;50.860;13.662;2022-11-03T08:19:52;9.82;;;1.30;;
32746;SDS011;19118;50.860;13.662;2022-11-03T08:24:52;11.35;;;1.73;;
32746;SDS011;19118;50.860;13.662;2022-11-03T08:29:52;5.97;;;1.40;;
32746;SDS011;19118;50.860;13.662;2022-11-03T08:34:53;7.50;;;1.95;;
32746;SDS011;19118;50.860;13.662;2022-11-03T08:39:53;4.47;;;1.02;;
32746;SDS011;19118;50.860;13.662;2022-11-03T08:44:54;8.35;;;1.48;;
32746;SDS011;19118;50.860;13.662;2022-11-03T08:49:55;6.63;;;1.67;;
32746;SDS011;19118;50.860;13.662;2022-11-03T08:54:55;8.20;;;1.48;;
32746;SDS011;19118;50.860;13.662;2022-11-03T08:59:55;8.95;;;1.45;;
32746;SDS011;19118;50.860;13.662;2022-11-03T09:04:56;7.80;;;1.10;;
32746;SDS011;19118;50.860;13.662;2022-11-03T09:09:57;10.60;;;1.55;;
32746;SDS011;19118;50.860;13.662;2022-11-03T09:14:57;7.72;;;1.40;;
32746;SDS011;19118;50.860;13.662;2022-11-03T09:19:58;11.35;;;1.30;;
32746;SDS011;19118;50.860;13.662;2022-11-03T09:24:58;12.20;;;1.10;;
32746;SDS011;19118;50.860;13.662;2022-11-03T09:29:58;7.60;;;1.38;;
32746;SDS011;19118;50.860;13.662;2022-11-03T09:34:59;11.35;;;1.55;;
32746;SDS011;19118;50.860;13.662;2022-11-03T09:39:59;15.73;;;5.38;;
32746;SDS011;19118;50.860;13.662;2022-11-03T09:44:59;11.77;;;4.15;;
32746;SDS011;19118;50.860;13.662;2022-11-03T09:50:02;13.77;;;3.25;;
32746;SDS011;19118;50.860;13.662;2022-11-03T09:55:08;8.48;;;2.60;;
32746;SDS011;19118;50.860;13.662;2022-11-03T10:00:17;4.43;;;1.02;;
32746;SDS011;19118;50.860;13.662;2022-11-03T10:05:24;21.48;;;12.55;;
32746;SDS011;19118;50.860;13.662;2022-11-03T10:10:26;6.78;;;1.60;;
32746;SDS011;19118;50.860;13.662;2022-11-03T10:15:27;13.15;;;1.40;;
32746;SDS011;19118;50.860;13.662;2022-11-03T10:20:28;5.45;;;1.38;;
32746;SDS011;19118;50.860;13.662;2022-11-03T10:30:53;6.45;;;1.63;;
32746;SDS011;19118;50.860;13.662;2022-11-03T10:36:00;6.72;;;1.35;;
32746;SDS011;19118;50.860;13.662;2022-11-03T10:41:09;3.95;;;1.02;;
32746;SDS011;19118;50.860;13.662;2022-11-03T10:51:20;4.82;;;1.60;;
32746;SDS011;19118;50.860;13.662;2022-11-03T10:56:20;8.63;;;1.63;;
32746;SDS011;19118;50.860;13.662;2022-11-03T11:01:21;6.40;;;1.10;;
32746;SDS011;19118;50.860;13.662;2022-11-03T11:11:27;5.18;;;1.42;;
32746;SDS011;19118;50.860;13.662;2022-11-03T11:21:50;5.68;;;1.13;;
32746;SDS011;19118;50.860;13.662;2022-11-03T11:26:57;13.40;;;1.90;;
32746;SDS011;19118;50.860;13.662;2022-11-03T11:31:58;9.65;;;1.55;;
32746;SDS011;19118;50.860;13.662;2022-11-03T11:42:09;6.47;;;1.45;;
32746;SDS011;19118;50.860;13.662;2022-11-03T11:47:56;6.82;;;1.45;;
32746;SDS011;19118;50.860;13.662;2022-11-03T11:57:49;12.38;;;2.40;;
32746;SDS011;19118;50.860;13.662;2022-11-03T12:02:52;17.48;;;2.10;;
32746;SDS011;19118;50.860;13.662;2022-11-03T12:07:53;8.35;;;1.98;;
32746;SDS011;19118;50.860;13.662;2022-11-03T12:12:54;8.48;;;2.70;;
32746;SDS011;19118;50.860;13.662;2022-11-03T12:17:55;10.52;;;2.45;;
32746;SDS011;19118;50.860;13.662;2022-11-03T12:22:56;12.48;;;2.80;;
32746;SDS011;19118;50.860;13.662;2022-11-03T12:27:56;10.15;;;2.67;;
32746;SDS011;19118;50.860;13.662;2022-11-03T12:32:57;9.93;;;2.60;;
32746;SDS011;19118;50.860;13.662;2022-11-03T12:37:57;10.53;;;2.70;;
32746;SDS011;19118;50.860;13.662;2022-11-03T12:42:57;7.50;;;2.30;;
32746;SDS011;19118;50.860;13.662;2022-11-03T12:47:58;5.20;;;2.23;;
32746;SDS011;19118;50.860;13.662;2022-11-03T12:52:58;7.28;;;2.58;;
32746;SDS011;19118;50.860;13.662;2022-11-03T12:57:59;8.75;;;2.35;;
32746;SDS011;19118;50.860;13.662;2022-11-03T13:02:59;11.30;;;2.53;;
32746;SDS011;19118;50.860;13.662;2022-11-03T13:08:00;7.90;;;2.37;;
32746;SDS011;19118;50.860;13.662;2022-11-03T13:13:00;8.33;;;2.47;;
32746;SDS011;19118;50.860;13.662;2022-11-03T13:18:00;8.03;;;2.67;;
32746;SDS011;19118;50.860;13.662;2022-11-03T13:23:01;12.18;;;3.63;;
32746;SDS011;19118;50.860;13.662;2022-11-03T13:28:03;8.93;;;2.90;;
32746;SDS011;19118;50.860;13.662;2022-11-03T13:33:04;10.60;;;3.28;;
32746;SDS011;19118;50.860;13.662;2022-11-03T13:38:04;11.35;;;2.80;;
32746;SDS011;19118;50.860;13.662;2022-11-03T13:43:04;10.25;;;2.92;;
32746;SDS011;19118;50.860;13.662;2022-11-03T13:48:05;7.65;;;2.50;;
32746;SDS011;19118;50.860;13.662;2022-11-03T13:53:05;11.82;;;3.65;;
32746;SDS011;19118;50.860;13.662;2022-11-03T13:58:06;7.50;;;3.08;;
32746;SDS011;19118;50.860;13.662;2022-11-03T14:03:06;22.67;;;3.60;;
32746;SDS011;19118;50.860;13.662;2022-11-03T14:08:06;17.47;;;4.67;;
32746;SDS011;19118;50.860;13.662;2022-11-03T14:13:07;9.10;;;4.00;;
32746;SDS011;19118;50.860;13.662;2022-11-03T14:18:08;9.05;;;3.75;;
32746;SDS011;19118;50.860;13.662;2022-11-03T14:23:08;20.50;;;5.75;;
32746;SDS011;19118;50.860;13.662;2022-11-03T14:28:08;13.73;;;4.55;;
32746;SDS011;19118;50.860;13.662;2022-11-03T14:33:09;16.58;;;3.92;;
32746;SDS011;19118;50.860;13.662;2022-11-03T14:38:09;24.07;;;5.47;;
32746;SDS011;19118;50.860;13.662;2022-11-03T14:43:09;11.80;;;4.53;;
32746;SDS011;19118;50.860;13.662;2022-11-03T14:48:10;19.73;;;4.50;;
32746;SDS011;19118;50.860;13.662;2022-11-03T14:53:10;16.20;;;4.97;;
32746;SDS011;19118;50.860;13.662;2022-11-03T14:58:11;16.88;;;4.95;;
32746;SDS011;19118;50.860;13.662;2022-11-03T15:03:11;17.55;;;7.97;;
32746;SDS011;19118;50.860;13.662;2022-11-03T15:08:12;13.85;;;6.35;;
32746;SDS011;19118;50.860;13.662;2022-11-03T15:13:13;19.45;;;6.50;;
32746;SDS011;19118;50.860;13.662;2022-11-03T15:18:14;18.15;;;7.93;;
32746;SDS011;19118;50.860;13.662;2022-11-03T15:23:14;19.00;;;7.95;;
32746;SDS011;19118;50.860;13.662;2022-11-03T15:28:15;21.13;;;8.75;;
32746;SDS011;19118;50.860;13.662;2022-11-03T15:33:15;19.90;;;9.48;;
32746;SDS011;19118;50.860;13.662;2022-11-03T15:38:16;21.52;;;10.27;;
32746;SDS011;19118;50.860;13.662;2022-11-03T15:43:16;24.90;;;13.07;;
32746;SDS011;19118;50.860;13.662;2022-11-03T15:48:17;30.65;;;14.02;;
32746;SDS011;19118;50.860;13.662;2022-11-03T15:53:17;22.60;;;12.25;;
32746;SDS011;19118;50.860;13.662;2022-11-03T15:58:17;22.27;;;12.25;;
32746;SDS011;19118;50.860;13.662;2022-11-03T16:03:18;30.52;;;12.85;;
32746;SDS011;19118;50.860;13.662;2022-11-03T16:08:18;24.13;;;11.40;;
32746;SDS011;19118;50.860;13.662;2022-11-03T16:13:19;21.55;;;10.02;;
32746;SDS011;19118;50.860;13.662;2022-11-03T16:18:19;23.90;;;9.70;;
32746;SDS011;19118;50.860;13.662;2022-11-03T16:23:19;27.25;;;10.50;;
32746;SDS011;19118;50.860;13.662;2022-11-03T16:28:20;23.50;;;10.73;;
32746;SDS011;19118;50.860;13.662;2022-11-03T16:33:20;24.50;;;11.60;;
32746;SDS011;19118;50.860;13.662;2022-11-03T16:38:21;24.45;;;12.00;;
32746;SDS011;19118;50.860;13.662;2022-11-03T16:43:22;24.92;;;12.20;;
32746;SDS011;19118;50.860;13.662;2022-11-03T16:48:22;24.92;;;11.52;;
32746;SDS011;19118;50.860;13.662;2022-11-03T16:53:23;31.77;;;11.93;;
32746;SDS011;19118;50.860;13.662;2022-11-03T16:58:23;30.05;;;12.52;;
32746;SDS011;19118;50.860;13.662;2022-11-03T17:03:24;24.77;;;11.48;;
32746;SDS011;19118;50.860;13.662;2022-11-03T17:08:24;21.95;;;10.43;;
32746;SDS011;19118;50.860;13.662;2022-11-03T17:13:25;24.58;;;10.77;;
32746;SDS011;19118;50.860;13.662;2022-11-03T17:18:25;18.70;;;9.63;;
32746;SDS011;19118;50.860;13.662;2022-11-03T17:23:26;17.40;;;9.68;;
32746;SDS011;19118;50.860;13.662;2022-11-03T17:28:26;24.52;;;9.20;;
32746;SDS011;19118;50.860;13.662;2022-11-03T17:33:27;25.60;;;9.10;;
32746;SDS011;19118;50.860;13.662;2022-11-03T17:38:27;27.25;;;9.90;;
32746;SDS011;19118;50.860;13.662;2022-11-03T17:43:27;27.88;;;10.18;;
32746;SDS011;19118;50.860;13.662;2022-11-03T17:48:29;18.10;;;10.02;;
32746;SDS011;19118;50.860;13.662;2022-11-03T17:53:30;24.43;;;9.67;;
32746;SDS011;19118;50.860;13.662;2022-11-03T17:58:32;31.05;;;10.40;;
32746;SDS011;19118;50.860;13.662;2022-11-03T18:03:35;25.02;;;11.40;;
32746;SDS011;19118;50.860;13.662;2022-11-03T18:08:35;20.20;;;11.50;;
32746;SDS011;19118;50.860;13.662;2022-11-03T18:13:36;27.17;;;12.98;;
32746;SDS011;19118;50.860;13.662;2022-11-03T18:18:37;27.67;;;15.15;;
32746;SDS011;19118;50.860;13.662;2022-11-03T18:23:43;34.10;;;19.77;;
32746;SDS011;19118;50.860;13.662;2022-11-03T18:28:43;40.00;;;20.95;;
32746;SDS011;19118;50.860;13.662;2022-11-03T18:33:44;29.50;;;20.13;;
32746;SDS011;19118;50.860;13.662;2022-11-03T18:38:45;39.65;;;20.65;;
32746;SDS011;19118;50.860;13.662;2022-11-03T18:43:47;33.88;;;19.98;;
32746;SDS011;19118;50.860;13.662;2022-11-03T18:48:47;34.72;;;20.60;;
32746;SDS011;19118;50.860;13.662;2022-11-03T18:53:48;44.58;;;22.58;;
32746;SDS011;19118;50.860;13.662;2022-11-03T18:58:49;38.85;;;19.35;;
32746;SDS011;19118;50.860;13.662;2022-11-03T19:03:52;31.85;;;18.63;;
32746;SDS011;19118;50.860;13.662;2022-11-03T19:08:56;41.65;;;20.35;;
32746;SDS011;19118;50.860;13.662;2022-11-03T19:13:58;35.55;;;22.63;;
32746;SDS011;19118;50.860;13.662;2022-11-03T19:18:59;41.67;;;24.20;;
32746;SDS011;19118;50.860;13.662;2022-11-03T19:23:59;41.05;;;24.23;;
32746;SDS011;19118;50.860;13.662;2022-11-03T19:29:00;39.60;;;23.23;;
32746;SDS011;19118;50.860;13.662;2022-11-03T19:34:05;40.45;;;24.70;;
32746;SDS011;19118;50.860;13.662;2022-11-03T19:39:13;44.65;;;26.35;;
32746;SDS011;19118;50.860;13.662;2022-11-03T19:44:23;42.58;;;25.10;;
32746;SDS011;19118;50.860;13.662;2022-11-03T19:49:23;45.47;;;25.67;;
32746;SDS011;19118;50.860;13.662;2022-11-03T19:54:24;50.85;;;26.88;;
32746;SDS011;19118;50.860;13.662;2022-11-03T19:59:25;47.05;;;27.85;;
32746;SDS011;19118;50.860;13.662;2022-11-03T20:04:25;43.85;;;27.27;;
32746;SDS011;19118;50.860;13.662;2022-11-03T20:09:25;44.50;;;26.10;;
32746;SDS011;19118;50.860;13.662;2022-11-03T20:14:26;45.15;;;28.20;;
32746;SDS011;19118;50.860;13.662;2022-11-03T20:19:26;50.97;;;27.65;;
32746;SDS011;19118;50.860;13.662;2022-11-03T20:24:27;47.80;;;28.13;;
32746;SDS011;19118;50.860;13.662;2022-11-03T20:29:27;47.45;;;26.92;;
32746;SDS011;19118;50.860;13.662;2022-11-03T20:34:28;50.13;;;26.38;;
32746;SDS011;19118;50.860;13.662;2022-11-03T20:39:28;42.50;;;26.77;;
32746;SDS011;19118;50.860;13.662;2022-11-03T20:44:29;41.97;;;25.55;;
32746;SDS011;19118;50.860;13.662;2022-11-03T20:49:29;40.80;;;24.80;;
32746;SDS011;19118;50.860;13.662;2022-11-03T20:54:29;39.73;;;27.90;;
32746;SDS011;19118;50.860;13.662;2022-11-03T20:59:30;42.83;;;29.33;;
32746;SDS011;19118;50.860;13.662;2022-11-03T21:04:30;45.15;;;27.88;;
32746;SDS011;19118;50.860;13.662;2022-11-03T21:09:31;48.40;;;28.65;;
32746;SDS011;19118;50.860;13.662;2022-11-03T21:14:32;43.63;;;29.70;;
32746;SDS011;19118;50.860;13.662;2022-11-03T21:19:32;48.13;;;29.73;;
32746;SDS011;19118;50.860;13.662;2022-11-03T21:24:52;50.25;;;30.70;;
32746;SDS011;19118;50.860;13.662;2022-11-03T21:29:52;52.00;;;30.30;;
32746;SDS011;19118;50.860;13.662;2022-11-03T21:34:52;50.75;;;29.05;;
32746;SDS011;19118;50.860;13.662;2022-11-03T21:39:53;48.65;;;27.27;;
32746;SDS011;19118;50.860;13.662;2022-11-03T21:44:53;44.65;;;26.77;;
32746;SDS011;19118;50.860;13.662;2022-11-03T21:49:53;40.67;;;26.25;;
32746;SDS011;19118;50.860;13.662;2022-11-03T21:54:54;43.90;;;26.00;;
32746;SDS011;19118;50.860;13.662;2022-11-03T21:59:54;42.85;;;25.83;;
32746;SDS011;19118;50.860;13.662;2022-11-03T22:04:58;42.38;;;25.60;;
32746;SDS011;19118;50.860;13.662;2022-11-03T22:09:59;44.65;;;26.88;;
32746;SDS011;19118;50.860;13.662;2022-11-03T22:14:59;46.97;;;25.77;;
32746;SDS011;19118;50.860;13.662;2022-11-03T22:20:18;41.80;;;24.85;;
32746;SDS011;19118;50.860;13.662;2022-11-03T22:25:36;53.25;;;24.85;;
32746;SDS011;19118;50.860;13.662;2022-11-03T22:30:55;39.80;;;24.60;;
32746;SDS011;19118;50.860;13.662;2022-11-03T22:36:13;41.95;;;23.13;;
32746;SDS011;19118;50.860;13.662;2022-11-03T22:41:23;39.75;;;22.73;;
32746;SDS011;19118;50.860;13.662;2022-11-03T22:46:41;36.83;;;21.42;;
32746;SDS011;19118;50.860;13.662;2022-11-03T22:51:42;35.10;;;21.20;;
32746;SDS011;19118;50.860;13.662;2022-11-03T22:56:42;35.20;;;18.98;;
32746;SDS011;19118;50.860;13.662;2022-11-03T23:01:43;36.58;;;20.08;;
32746;SDS011;19118;50.860;13.662;2022-11-03T23:06:43;35.47;;;20.40;;
32746;SDS011;19118;50.860;13.662;2022-11-03T23:11:43;30.42;;;19.33;;
32746;SDS011;19118;50.860;13.662;2022-11-03T23:16:44;32.22;;;18.20;;
32746;SDS011;19118;50.860;13.662;2022-11-03T23:21:45;26.85;;;17.15;;
32746;SDS011;19118;50.860;13.662;2022-11-03T23:26:46;34.30;;;18.70;;
32746;SDS011;19118;50.860;13.662;2022-11-03T23:31:47;36.63;;;18.67;;
32746;SDS011;19118;50.860;13.662;2022-11-03T23:36:47;27.25;;;18.23;;
32746;SDS011;19118;50.860;13.662;2022-11-03T23:41:48;32.15;;;19.65;;
32746;SDS011;19118;50.860;13.662;2022-11-03T23:46:51;29.83;;;17.73;;
32746;SDS011;19118;50.860;13.662;2022-11-03T23:52:10;27.15;;;16.92;;
32746;SDS011;19118;50.860;13.662;2022-11-03T23:57:10;28.80;;;17.67;;
